Time;durP1;ratioP1;P1;durP2;ratioP2;P2;SDS_P1;SDS_P2;PMS_P1;PMS_P2;Temp;Humidity;BMP_temperature;BMP_pressure;BME280_temperature;BME280_humidity;BME280_pressure;Samples;Min_cycle;Max_cycle;Signal;HPM_P1;HPM_P2
2022/09/03 00:00:13;;;;;;;13.63;2.73;;;12.70;91.40;;;;;;5065825;28;20188;-79
2022/09/03 00:02:58;;;;;;;13.47;2.63;;;12.70;91.30;;;;;;5054852;28;20211;-85
2022/09/03 00:05:36;;;;;;;10.53;2.80;;;12.80;91.30;;;;;;5055041;28;20630;-77
2022/09/03 00:08:08;;;;;;;11.93;2.63;;;12.70;90.90;;;;;;5054382;28;20215;-79
2022/09/03 00:11:00;;;;;;;12.50;2.57;;;12.60;90.50;;;;;;5057863;28;20178;-80
2022/09/03 00:14:03;;;;;;;15.10;3.30;;;12.70;91.20;;;;;;5058355;28;20184;-79
2022/09/03 00:16:43;;;;;;;19.37;3.90;;;12.70;91.30;;;;;;5053972;28;20217;-77
2022/09/03 00:19:12;;;;;;;21.97;3.50;;;12.80;91.00;;;;;;5069435;28;20186;-85
2022/09/03 00:21:45;;;;;;;16.03;3.10;;;12.80;90.70;;;;;;5066954;28;20206;-82
2022/09/03 00:24:17;;;;;;;18.13;3.13;;;12.80;90.50;;;;;;5072162;28;20187;-81
2022/09/03 00:26:53;;;;;;;16.67;3.00;;;12.80;90.20;;;;;;5059699;28;20210;-78
2022/09/03 00:29:28;;;;;;;19.73;2.73;;;12.80;90.10;;;;;;5080500;28;20206;-79
2022/09/03 00:32:02;;;;;;;15.47;3.30;;;12.80;89.70;;;;;;5081075;28;20258;-81
2022/09/03 00:34:34;;;;;;;18.03;2.73;;;12.90;89.80;;;;;;5054665;28;20581;-82
2022/09/03 00:37:02;;;;;;;11.60;2.83;;;13.00;89.40;;;;;;5053276;28;20207;-80
2022/09/03 00:39:29;;;;;;;19.37;2.73;;;13.10;89.50;;;;;;5060318;28;20180;-76
2022/09/03 00:42:22;;;;;;;16.47;3.97;;;13.20;89.40;;;;;;5057721;28;20230;-81
2022/09/03 00:45:07;;;;;;;26.27;4.40;;;13.20;89.10;;;;;;5064515;28;20190;-80
2022/09/03 00:48:02;;;;;;;18.17;3.73;;;13.30;89.20;;;;;;5058970;28;20280;-79
2022/09/03 00:50:53;;;;;;;19.87;3.63;;;13.50;89.80;;;;;;5058160;28;20267;-82
2022/09/03 00:53:30;;;;;;;21.50;4.00;;;13.60;89.70;;;;;;5065841;28;20540;-78
2022/09/03 00:56:21;;;;;;;20.40;4.90;;;13.80;90.00;;;;;;5071553;28;20178;-78
2022/09/03 00:59:14;;;;;;;21.37;4.13;;;13.80;89.60;;;;;;5082031;28;20189;-78
2022/09/03 01:01:59;;;;;;;21.90;3.27;;;13.60;88.50;;;;;;5076744;28;20807;-78
2022/09/03 01:04:50;;;;;;;15.00;3.40;;;13.60;87.80;;;;;;5081718;28;20209;-77
2022/09/03 01:07:38;;;;;;;36.53;10.13;;;13.70;87.90;;;;;;5084193;28;20202;-76
2022/09/03 01:10:18;;;;;;;24.33;4.23;;;13.80;89.10;;;;;;5061829;28;20206;-77
2022/09/03 01:13:02;;;;;;;27.47;4.20;;;13.80;88.70;;;;;;5070154;28;20195;-77
2022/09/03 01:15:41;;;;;;;26.60;4.33;;;13.80;88.60;;;;;;5061290;28;20198;-75
2022/09/03 01:18:42;;;;;;;22.97;4.13;;;13.80;88.30;;;;;;5067232;28;20196;-75
2022/09/03 01:21:24;;;;;;;17.07;3.23;;;13.90;87.90;;;;;;5071641;28;20176;-80
2022/09/03 01:24:00;;;;;;;53.47;22.13;;;13.90;86.70;;;;;;5078267;28;20220;-79
2022/09/03 01:27:04;;;;;;;23.93;3.87;;;13.90;84.50;;;;;;5052816;28;20387;-79
2022/09/03 01:30:03;;;;;;;12.03;2.50;;;14.10;80.40;;;;;;5052680;28;20186;-77
2022/09/03 01:32:31;;;;;;;17.17;3.53;;;14.20;78.70;;;;;;5052880;28;20229;-78
2022/09/03 01:35:34;;;;;;;15.83;3.13;;;14.20;80.60;;;;;;5051537;28;20211;-78
2022/09/03 01:38:10;;;;;;;18.40;3.70;;;14.00;83.70;;;;;;5055781;28;20176;-81
2022/09/03 01:44:21;;;;;;;21.33;3.60;;;13.80;86.20;;;;;;5052433;28;20191;-84
2022/09/03 01:46:57;;;;;;;21.97;3.67;;;13.70;87.70;;;;;;5055552;28;20281;-83
2022/09/03 01:49:40;;;;;;;22.10;3.67;;;13.60;87.50;;;;;;5092695;28;20163;-76
2022/09/03 01:52:37;;;;;;;22.10;3.80;;;13.60;87.50;;;;;;5069676;28;20180;-78
2022/09/03 01:55:43;;;;;;;17.73;3.87;;;13.60;87.40;;;;;;5074225;28;20260;-76
2022/09/03 01:58:25;;;;;;;13.73;3.40;;;13.70;87.50;;;;;;5051828;28;20259;-79
2022/09/03 02:00:59;;;;;;;18.63;4.10;;;13.70;86.00;;;;;;5051534;28;20175;-80
2022/09/03 02:03:35;;;;;;;12.00;3.33;;;13.80;84.80;;;;;;5052268;28;20219;-78
2022/09/03 02:06:04;;;;;;;14.67;2.57;;;13.80;84.10;;;;;;5061329;28;20192;-80
2022/09/03 02:08:32;;;;;;;23.23;4.03;;;14.00;84.80;;;;;;5070125;28;20673;-86
2022/09/03 02:11:01;;;;;;;16.60;2.53;;;14.10;84.80;;;;;;5057298;28;20175;-76
2022/09/03 02:13:40;;;;;;;13.33;2.40;;;14.10;83.50;;;;;;5052752;28;20187;-79
2022/09/03 02:16:15;;;;;;;21.73;3.60;;;14.00;83.70;;;;;;5063296;28;20189;-81
2022/09/03 02:18:50;;;;;;;20.23;3.10;;;14.00;83.90;;;;;;5077623;28;20636;-79
2022/09/03 02:21:23;;;;;;;16.43;3.50;;;14.10;83.60;;;;;;5084831;28;20536;-77
2022/09/03 02:23:51;;;;;;;13.17;2.87;;;14.30;83.00;;;;;;5082502;28;20180;-78
2022/09/03 02:26:23;;;;;;;15.23;2.60;;;14.40;82.40;;;;;;5051742;28;20255;-78
2022/09/03 02:28:53;;;;;;;13.30;2.40;;;14.60;79.20;;;;;;5059346;28;20179;-80
2022/09/03 02:31:21;;;;;;;17.63;2.37;;;14.90;77.50;;;;;;5059957;28;20200;-78
2022/09/03 02:33:50;;;;;;;16.40;2.67;;;14.60;80.00;;;;;;5064215;28;20179;-79
2022/09/03 02:36:24;;;;;;;13.30;2.37;;;14.40;82.30;;;;;;5055969;28;20192;-79
2022/09/03 02:38:51;;;;;;;12.67;3.00;;;14.50;82.60;;;;;;5068644;28;20172;-78
2022/09/03 02:41:19;;;;;;;13.57;1.93;;;14.50;81.40;;;;;;5061395;28;20716;-78
2022/09/03 02:43:56;;;;;;;8.43;2.17;;;14.70;78.60;;;;;;5056241;28;20543;-81
2022/09/03 02:46:37;;;;;;;6.13;1.60;;;15.10;76.90;;;;;;5074738;28;20298;-78
2022/09/03 02:49:05;;;;;;;10.87;2.00;;;15.30;75.30;;;;;;5060542;28;20599;-75
2022/09/03 02:51:38;;;;;;;8.23;1.63;;;15.50;74.50;;;;;;5055944;28;20185;-87
2022/09/03 02:54:06;;;;;;;15.83;2.20;;;15.90;73.50;;;;;;5063952;28;20206;-78
2022/09/03 02:56:34;;;;;;;8.77;1.93;;;16.50;73.30;;;;;;5073252;28;20199;-79
2022/09/03 02:59:04;;;;;;;9.00;2.03;;;16.40;72.20;;;;;;5055728;28;20178;-82
2022/09/03 03:01:32;;;;;;;10.93;2.40;;;16.00;70.80;;;;;;5055890;28;20231;-79
2022/09/03 03:04:00;;;;;;;7.90;2.23;;;15.80;71.50;;;;;;5055728;28;20565;-83
2022/09/03 03:06:30;;;;;;;11.07;2.20;;;15.70;71.00;;;;;;5055671;28;20230;-78
2022/09/03 03:08:58;;;;;;;9.87;2.63;;;15.70;71.10;;;;;;5056823;28;20426;-76
2022/09/03 03:11:27;;;;;;;11.63;1.97;;;15.70;72.10;;;;;;5055128;28;20178;-76
2022/09/03 03:13:54;;;;;;;8.23;2.00;;;15.90;71.20;;;;;;5055099;28;20263;-89
2022/09/03 03:16:22;;;;;;;7.90;1.97;;;15.90;69.70;;;;;;5055390;28;20770;-81
2022/09/03 03:18:51;;;;;;;14.63;2.17;;;16.00;70.30;;;;;;5071600;28;20287;-77
2022/09/03 03:21:21;;;;;;;8.93;1.90;;;16.10;70.90;;;;;;5058558;28;20216;-80
2022/09/03 03:23:49;;;;;;;7.87;1.80;;;16.20;70.20;;;;;;5054764;28;20222;-79
2022/09/03 03:26:19;;;;;;;6.63;1.90;;;16.20;70.30;;;;;;5054776;28;20206;-83
2022/09/03 03:28:49;;;;;;;11.03;2.17;;;16.20;69.40;;;;;;5055107;28;20661;-76
2022/09/03 03:31:20;;;;;;;10.43;1.63;;;16.00;70.50;;;;;;5055458;28;20184;-80
2022/09/03 03:34:02;;;;;;;12.30;2.10;;;16.10;69.60;;;;;;5069222;28;20183;-83
2022/09/03 03:36:32;;;;;;;7.73;1.97;;;16.20;68.70;;;;;;5074507;28;20533;-81
2022/09/03 03:39:00;;;;;;;11.43;1.80;;;16.30;67.80;;;;;;5070238;28;20265;-80
2022/09/03 03:41:33;;;;;;;8.33;1.87;;;16.40;67.80;;;;;;5066478;28;20221;-84
2022/09/03 03:44:04;;;;;;;9.90;2.03;;;16.40;66.20;;;;;;5055802;28;20547;-75
2022/09/03 03:46:37;;;;;;;10.63;1.77;;;16.30;66.20;;;;;;5068469;28;20199;-82
2022/09/03 03:49:05;;;;;;;9.43;1.87;;;16.20;67.20;;;;;;5054953;28;20669;-75
2022/09/03 03:51:34;;;;;;;10.67;2.90;;;16.00;68.10;;;;;;5054520;28;20188;-79
2022/09/03 03:54:02;;;;;;;11.10;2.27;;;15.90;66.80;;;;;;5058819;28;20174;-85
2022/09/03 03:56:29;;;;;;;17.30;2.70;;;15.80;68.40;;;;;;5073530;28;20170;-77
2022/09/03 03:58:58;;;;;;;8.83;2.50;;;15.50;73.30;;;;;;5055172;28;20192;-79
2022/09/03 04:01:28;;;;;;;11.00;2.37;;;14.30;81.40;;;;;;5054027;28;20184;-78
2022/09/03 04:03:56;;;;;;;11.63;2.33;;;13.80;84.30;;;;;;5056169;28;20188;-78
2022/09/03 04:06:24;;;;;;;15.77;3.00;;;13.50;85.80;;;;;;5060995;28;20200;-79
2022/09/03 04:08:52;;;;;;;12.47;2.33;;;13.20;86.10;;;;;;5071095;28;20191;-78
2022/09/03 04:11:21;;;;;;;17.67;2.60;;;13.20;86.80;;;;;;5056275;28;20633;-78
2022/09/03 04:13:50;;;;;;;9.67;2.23;;;13.10;86.50;;;;;;5060572;28;20194;-81
2022/09/03 04:16:26;;;;;;;13.23;2.13;;;13.10;86.30;;;;;;5054079;28;20184;-84
2022/09/03 04:18:55;;;;;;;12.83;2.53;;;13.30;85.40;;;;;;5054029;28;20175;-82
2022/09/03 04:21:28;;;;;;;11.87;2.50;;;13.30;85.30;;;;;;5060698;28;20548;-83
2022/09/03 04:23:56;;;;;;;7.83;2.23;;;13.30;84.40;;;;;;5054149;28;20262;-80
2022/09/03 04:26:32;;;;;;;11.50;3.20;;;13.30;84.00;;;;;;5053891;28;20180;-79
2022/09/03 04:29:05;;;;;;;7.47;2.13;;;13.30;83.40;;;;;;5054877;28;20274;-78
2022/09/03 04:31:33;;;;;;;11.67;2.43;;;13.20;85.00;;;;;;5054001;28;20180;-77
2022/09/03 04:34:01;;;;;;;15.00;3.03;;;13.10;85.80;;;;;;5070590;28;20176;-78
2022/09/03 04:36:30;;;;;;;11.03;2.43;;;13.20;86.50;;;;;;5066806;28;20171;-80
2022/09/03 04:39:00;;;;;;;12.17;2.87;;;13.20;86.30;;;;;;5065720;28;20183;-78
2022/09/03 04:41:30;;;;;;;17.23;2.70;;;13.30;86.30;;;;;;5057720;28;20234;-79
2022/09/03 04:43:58;;;;;;;15.20;3.27;;;13.40;86.20;;;;;;5053939;28;20195;-78
2022/09/03 04:46:31;;;;;;;20.70;3.40;;;13.50;85.70;;;;;;5054242;28;20196;-81
2022/09/03 04:48:59;;;;;;;14.10;2.70;;;13.70;84.80;;;;;;5053804;28;20194;-87
2022/09/03 04:51:30;;;;;;;13.10;2.70;;;13.70;82.70;;;;;;5085388;28;20245;-80
2022/09/03 04:54:00;;;;;;;12.73;2.27;;;13.80;82.00;;;;;;5052639;28;20183;-78
2022/09/03 04:56:34;;;;;;;16.07;3.53;;;13.90;80.10;;;;;;5053654;28;20172;-82
2022/09/03 04:59:04;;;;;;;13.77;2.80;;;14.00;81.00;;;;;;5054103;28;20171;-80
2022/09/03 05:01:34;;;;;;;15.37;2.60;;;14.00;80.80;;;;;;5059651;28;20538;-83
2022/09/03 05:04:02;;;;;;;16.00;3.00;;;14.00;80.60;;;;;;5067332;28;20669;-80
2022/09/03 05:06:31;;;;;;;17.40;3.30;;;14.00;80.20;;;;;;5053624;28;20200;-78
2022/09/03 05:08:59;;;;;;;13.97;3.03;;;14.10;80.00;;;;;;5063313;28;20183;-78
2022/09/03 05:11:28;;;;;;;11.40;2.50;;;14.10;78.70;;;;;;5067973;28;20169;-82
2022/09/03 05:13:57;;;;;;;11.23;2.70;;;14.20;78.30;;;;;;5054557;28;20263;-81
2022/09/03 05:16:27;;;;;;;14.10;2.83;;;14.20;79.50;;;;;;5051999;28;20286;-78
2022/09/03 05:19:00;;;;;;;16.60;3.03;;;14.20;80.50;;;;;;5067545;28;20279;-76
2022/09/03 05:21:29;;;;;;;16.03;3.00;;;14.00;82.10;;;;;;5053033;28;20167;-80
2022/09/03 05:23:57;;;;;;;14.97;2.97;;;13.80;82.60;;;;;;5054957;28;20208;-82
2022/09/03 05:26:27;;;;;;;14.10;3.13;;;13.70;83.00;;;;;;5051129;28;20168;-80
2022/09/03 05:29:00;;;;;;;10.70;2.53;;;13.70;83.40;;;;;;5052774;28;20238;-81
2022/09/03 05:31:30;;;;;;;12.63;2.67;;;13.70;83.40;;;;;;5052539;28;20168;-80
2022/09/03 05:34:00;;;;;;;11.13;2.50;;;13.70;83.40;;;;;;5059090;28;20275;-78
2022/09/03 05:36:31;;;;;;;12.97;2.60;;;13.70;82.40;;;;;;5052911;28;20176;-78
2022/09/03 05:38:59;;;;;;;16.33;2.43;;;13.70;82.50;;;;;;5054561;28;20229;-78
2022/09/03 05:41:28;;;;;;;17.23;3.03;;;13.70;80.90;;;;;;5053165;28;20222;-84
2022/09/03 05:43:57;;;;;;;13.67;2.17;;;13.80;78.00;;;;;;5059210;28;20180;-82
2022/09/03 05:46:30;;;;;;;12.27;2.13;;;13.90;76.70;;;;;;5054560;28;20178;-83
2022/09/03 05:49:02;;;;;;;11.57;2.50;;;14.00;73.50;;;;;;5061953;28;20190;-80
2022/09/03 05:51:31;;;;;;;12.70;2.90;;;14.10;72.50;;;;;;5051399;28;20186;-84
2022/09/03 05:53:59;;;;;;;11.23;2.53;;;14.20;72.80;;;;;;5050641;28;20194;-82
2022/09/03 05:56:28;;;;;;;7.13;1.70;;;14.30;70.10;;;;;;5051112;28;20239;-80
2022/09/03 05:59:01;;;;;;;12.57;2.30;;;14.50;68.60;;;;;;5058107;28;20182;-79
2022/09/03 06:01:31;;;;;;;11.43;2.00;;;14.50;67.80;;;;;;5057170;28;20184;-83
2022/09/03 06:04:03;;;;;;;11.40;2.03;;;14.50;67.00;;;;;;5051323;28;20716;-85
2022/09/03 06:06:32;;;;;;;16.27;2.47;;;14.60;67.50;;;;;;5055911;28;20184;-81
2022/09/03 06:09:03;;;;;;;12.83;3.03;;;14.70;65.50;;;;;;5063854;28;20180;-78
2022/09/03 06:11:33;;;;;;;8.90;2.33;;;14.70;66.60;;;;;;5056637;28;20180;-83
2022/09/03 06:14:06;;;;;;;12.47;2.40;;;14.80;66.50;;;;;;5068309;28;20188;-79
2022/09/03 06:16:37;;;;;;;10.27;2.40;;;14.80;64.70;;;;;;5071690;28;20202;-84
2022/09/03 06:19:13;;;;;;;8.03;2.20;;;14.80;66.00;;;;;;5056336;28;20686;-85
2022/09/03 06:21:42;;;;;;;9.67;2.27;;;14.80;64.80;;;;;;5056738;28;20266;-85
2022/09/03 06:24:15;;;;;;;10.07;2.00;;;14.80;64.60;;;;;;5067579;28;20267;-85
2022/09/03 06:26:43;;;;;;;6.97;2.03;;;14.80;63.70;;;;;;5062115;28;20276;-78
2022/09/03 06:29:11;;;;;;;8.30;2.17;;;14.80;63.40;;;;;;5057723;28;20176;-80
2022/09/03 06:31:39;;;;;;;4.77;1.77;;;14.80;63.40;;;;;;5069499;28;20956;-82
2022/09/03 06:34:07;;;;;;;15.33;3.23;;;14.90;63.60;;;;;;5064799;28;20183;-82
2022/09/03 06:36:34;;;;;;;10.83;2.23;;;14.90;63.80;;;;;;5066011;28;20215;-86
2022/09/03 06:39:02;;;;;;;16.27;3.07;;;14.80;64.80;;;;;;5071614;28;20187;-80
2022/09/03 06:41:32;;;;;;;12.23;2.23;;;14.90;65.80;;;;;;5072698;28;20276;-84
2022/09/03 06:44:02;;;;;;;11.73;2.20;;;14.80;66.10;;;;;;5073979;28;20214;-76
2022/09/03 06:46:37;;;;;;;15.83;2.80;;;14.80;67.50;;;;;;5069457;28;20226;-79
2022/09/03 06:49:05;;;;;;;9.20;2.27;;;14.80;68.20;;;;;;5073661;28;20198;-81
2022/09/03 06:51:33;;;;;;;8.43;1.93;;;14.80;68.90;;;;;;5071238;28;20175;-84
2022/09/03 06:54:05;;;;;;;15.73;3.17;;;14.90;69.50;;;;;;5069770;28;20179;-79
2022/09/03 06:56:33;;;;;;;17.90;5.33;;;14.80;69.50;;;;;;5069221;28;20176;-80
2022/09/03 06:59:06;;;;;;;14.37;2.87;;;14.80;70.30;;;;;;5070258;28;20180;-74
2022/09/03 07:01:35;;;;;;;15.03;4.03;;;14.80;69.70;;;;;;5072440;28;20187;-76
2022/09/03 07:04:04;;;;;;;12.03;2.70;;;14.80;70.40;;;;;;5073889;28;20525;-74
2022/09/03 07:06:38;;;;;;;13.73;2.93;;;14.80;69.80;;;;;;5068824;28;20211;-81
2022/09/03 07:09:11;;;;;;;10.07;2.60;;;14.80;70.30;;;;;;5074551;28;20650;-74
2022/09/03 07:11:45;;;;;;;10.53;2.07;;;14.70;70.70;;;;;;5068774;28;20709;-76
2022/09/03 07:14:14;;;;;;;7.77;2.40;;;14.70;70.40;;;;;;5069500;28;20228;-77
2022/09/03 07:16:42;;;;;;;8.60;2.20;;;14.60;71.10;;;;;;5068635;28;20558;-79
2022/09/03 07:19:12;;;;;;;10.33;2.30;;;14.60;70.50;;;;;;5072446;28;20183;-79
2022/09/03 07:21:43;;;;;;;10.10;2.00;;;14.50;71.10;;;;;;5057013;28;20257;-77
2022/09/03 07:24:11;;;;;;;14.77;2.40;;;14.50;69.80;;;;;;5061391;28;20270;-77
2022/09/03 07:26:43;;;;;;;12.30;2.47;;;14.50;70.30;;;;;;5058230;28;20310;-73
2022/09/03 07:29:13;;;;;;;10.17;2.60;;;14.50;69.20;;;;;;5053935;28;20179;-78
2022/09/03 07:31:42;;;;;;;10.00;2.00;;;14.50;69.10;;;;;;5066614;28;20187;-78
2022/09/03 07:34:12;;;;;;;7.63;2.37;;;14.40;69.10;;;;;;5057563;28;20172;-75
2022/09/03 07:36:42;;;;;;;7.37;1.67;;;14.30;68.50;;;;;;5053931;28;20704;-79
2022/09/03 07:39:11;;;;;;;5.83;1.70;;;14.30;68.10;;;;;;5065425;28;20191;-76
2022/09/03 07:41:42;;;;;;;11.13;2.30;;;14.30;66.10;;;;;;5071395;28;20227;-82
2022/09/03 07:44:12;;;;;;;7.93;1.90;;;14.30;66.10;;;;;;5072351;28;20693;-78
2022/09/03 07:46:40;;;;;;;4.67;1.43;;;14.30;66.70;;;;;;5072030;28;20203;-77
2022/09/03 07:49:08;;;;;;;12.03;1.70;;;14.40;66.60;;;;;;5071822;28;20530;-81
2022/09/03 07:51:38;;;;;;;8.17;1.80;;;14.30;67.50;;;;;;5067013;28;20175;-78
2022/09/03 07:54:10;;;;;;;7.17;2.37;;;14.40;68.10;;;;;;5064941;28;20191;-77
2022/09/03 07:56:39;;;;;;;9.57;2.17;;;14.40;68.30;;;;;;5064124;28;20172;-80
2022/09/03 07:59:08;;;;;;;11.63;2.20;;;14.30;68.30;;;;;;5060928;28;20263;-80
2022/09/03 08:01:36;;;;;;;7.90;1.50;;;14.30;67.20;;;;;;5064429;28;20180;-76
2022/09/03 08:04:05;;;;;;;7.03;2.20;;;14.30;67.00;;;;;;5055810;28;20176;-76
2022/09/03 08:06:33;;;;;;;7.33;2.03;;;14.30;67.50;;;;;;5054471;28;20180;-78
2022/09/03 08:09:10;;;;;;;8.07;1.93;;;14.30;67.50;;;;;;5066950;28;20583;-77
2022/09/03 08:11:42;;;;;;;5.67;1.87;;;14.30;67.50;;;;;;5063291;28;20614;-78
2022/09/03 08:14:12;;;;;;;12.33;1.93;;;14.30;68.10;;;;;;5061843;28;20179;-80
2022/09/03 08:16:46;;;;;;;13.80;3.17;;;14.40;68.70;;;;;;5054014;28;20585;-79
2022/09/03 08:19:14;;;;;;;13.57;2.13;;;14.40;70.20;;;;;;5064771;28;20170;-81
2022/09/03 08:21:42;;;;;;;11.60;3.00;;;14.30;70.70;;;;;;5059976;28;20176;-79
2022/09/03 08:24:10;;;;;;;12.77;2.00;;;14.20;74.80;;;;;;5070140;28;20172;-80
2022/09/03 08:26:43;;;;;;;14.90;2.70;;;13.80;76.60;;;;;;5068633;28;20618;-78
2022/09/03 08:29:10;;;;;;;12.93;2.30;;;13.40;79.00;;;;;;5077308;28;20228;-75
2022/09/03 08:31:38;;;;;;;12.33;2.53;;;13.10;80.20;;;;;;5057965;28;20180;-75
2022/09/03 08:34:07;;;;;;;7.17;1.90;;;12.90;81.30;;;;;;5057425;28;20266;-77
2022/09/03 08:36:36;;;;;;;5.07;1.90;;;12.70;81.20;;;;;;5058192;28;20183;-79
2022/09/03 08:39:09;;;;;;;6.73;2.23;;;12.60;80.70;;;;;;5060187;28;20176;-76
2022/09/03 08:42:09;;;;;;;8.87;1.97;;;12.50;80.00;;;;;;5053041;28;20227;-76
2022/09/03 08:44:49;;;;;;;11.67;2.37;;;12.60;79.30;;;;;;5053757;28;20168;-78
2022/09/03 08:47:52;;;;;;;7.03;1.90;;;12.50;79.80;;;;;;5053138;28;20195;-77
2022/09/03 08:50:47;;;;;;;9.83;2.50;;;12.50;80.20;;;;;;5052969;28;20242;-76
2022/09/03 08:53:29;;;;;;;9.40;2.53;;;12.60;81.00;;;;;;5059460;28;20194;-76
2022/09/03 08:56:06;;;;;;;12.60;2.83;;;12.80;80.60;;;;;;5052801;28;20186;-78
2022/09/03 08:58:43;;;;;;;12.47;2.97;;;12.90;80.20;;;;;;5053483;28;20259;-78
2022/09/03 09:01:15;;;;;;;5.23;2.27;;;13.00;79.90;;;;;;5053302;28;20191;-75
2022/09/03 09:03:56;;;;;;;15.43;3.10;;;13.10;79.40;;;;;;5053115;28;20176;-77
2022/09/03 09:06:23;;;;;;;9.50;2.57;;;13.20;78.40;;;;;;5053270;28;20865;-79
2022/09/03 09:09:09;;;;;;;16.63;2.70;;;13.30;78.20;;;;;;5065551;28;20237;-78
2022/09/03 09:12:00;;;;;;;8.13;2.10;;;13.30;77.00;;;;;;5053079;28;20206;-76
2022/09/03 09:14:54;;;;;;;12.67;2.33;;;13.30;76.50;;;;;;5053532;28;20253;-80
2022/09/03 09:17:39;;;;;;;15.43;2.53;;;13.40;75.10;;;;;;5052962;28;20177;-79
2022/09/03 09:20:20;;;;;;;13.07;2.47;;;13.70;75.60;;;;;;5052927;28;20180;-82
2022/09/03 09:23:06;;;;;;;7.23;1.93;;;13.60;77.00;;;;;;5053187;28;20313;-86
2022/09/03 09:25:40;;;;;;;12.80;2.30;;;13.50;79.00;;;;;;5052610;28;20180;-86
2022/09/03 09:28:34;;;;;;;10.47;2.60;;;13.30;80.80;;;;;;5059459;28;20241;-80
2022/09/03 09:31:03;;;;;;;9.93;2.40;;;13.20;81.70;;;;;;5053037;28;20187;-82
2022/09/03 09:33:31;;;;;;;12.50;2.67;;;13.20;81.70;;;;;;5051613;28;20187;-82
2022/09/03 09:36:10;;;;;;;20.57;3.23;;;13.20;80.90;;;;;;5052725;28;20177;-81
2022/09/03 09:38:39;;;;;;;8.23;2.00;;;13.30;81.40;;;;;;5064842;28;20182;-78
2022/09/03 09:41:22;;;;;;;13.63;1.90;;;13.20;80.70;;;;;;5067523;28;20235;-76
2022/09/03 09:44:01;;;;;;;8.03;1.93;;;13.10;80.10;;;;;;5072322;28;20624;-76
2022/09/03 09:46:40;;;;;;;12.33;2.53;;;13.20;80.00;;;;;;5052952;28;20172;-78
2022/09/03 09:49:34;;;;;;;8.37;2.17;;;13.10;80.50;;;;;;5055358;28;20178;-79
2022/09/03 09:52:14;;;;;;;11.63;3.00;;;13.10;80.50;;;;;;5052655;28;20580;-78
2022/09/03 09:54:44;;;;;;;13.07;2.60;;;13.10;81.10;;;;;;5055000;28;20183;-78
2022/09/03 09:57:26;;;;;;;9.63;2.63;;;13.10;81.10;;;;;;5065107;28;20224;-85
2022/09/03 10:00:24;;;;;;;13.30;2.37;;;13.10;81.00;;;;;;5067440;28;20478;-91
2022/09/03 10:02:53;;;;;;;11.20;2.83;;;13.10;81.00;;;;;;5056520;28;20244;-84
2022/09/03 10:05:21;;;;;;;12.77;2.97;;;13.10;81.00;;;;;;5051959;28;20183;-84
2022/09/03 10:08:00;;;;;;;13.07;3.43;;;13.10;79.70;;;;;;5072868;28;20227;-89
2022/09/03 10:10:34;;;;;;;12.83;2.93;;;13.20;77.40;;;;;;5056551;28;20176;-87
2022/09/03 10:13:11;;;;;;;13.83;2.97;;;13.20;74.00;;;;;;5051190;28;20222;-80
2022/09/03 10:15:47;;;;;;;15.87;2.47;;;13.40;71.80;;;;;;5052049;28;20516;-84
2022/09/03 10:18:29;;;;;;;10.27;2.00;;;13.40;69.90;;;;;;5060200;28;20228;-84
2022/09/03 10:21:11;;;;;;;7.87;2.43;;;13.50;69.70;;;;;;5051953;28;20184;-85
2022/09/03 10:24:15;;;;;;;12.20;2.63;;;13.50;69.20;;;;;;5065667;28;20573;-82
2022/09/03 10:26:57;;;;;;;7.70;2.37;;;13.50;69.10;;;;;;5051857;28;20701;-82
2022/09/03 10:29:28;;;;;;;5.93;2.03;;;13.50;67.90;;;;;;5079264;28;20180;-83
2022/09/03 10:32:22;;;;;;;8.27;2.20;;;13.60;68.20;;;;;;5064363;28;20229;-89
2022/09/03 10:34:56;;;;;;;7.10;2.00;;;13.70;66.50;;;;;;5062305;28;20696;-86
2022/09/03 10:37:37;;;;;;;7.07;1.90;;;13.70;66.40;;;;;;5052805;28;20172;-81
2022/09/03 10:40:30;;;;;;;9.93;2.03;;;13.80;66.70;;;;;;5051436;28;20538;-88
2022/09/03 10:43:22;;;;;;;10.53;2.13;;;13.80;66.20;;;;;;5053731;28;20188;-85
2022/09/03 10:46:06;;;;;;;6.63;1.70;;;13.70;65.30;;;;;;5051687;28;20169;-80
2022/09/03 10:48:37;;;;;;;6.60;1.57;;;13.70;64.60;;;;;;5051573;28;20270;-87
2022/09/03 10:51:13;;;;;;;3.90;1.57;;;13.70;64.90;;;;;;5051626;28;20638;-83
2022/09/03 10:53:50;;;;;;;4.50;1.77;;;13.60;64.80;;;;;;5064394;28;20175;-84
2022/09/03 10:56:30;;;;;;;8.27;2.30;;;13.60;63.50;;;;;;5057513;28;20626;-85
2022/09/03 10:59:08;;;;;;;6.33;1.90;;;13.50;64.40;;;;;;5055938;28;20175;-80
2022/09/03 11:01:44;;;;;;;8.57;1.90;;;13.50;64.30;;;;;;5057866;28;20184;-80
2022/09/03 11:04:32;;;;;;;5.60;1.70;;;13.50;65.10;;;;;;5057850;28;20182;-78
2022/09/03 11:07:08;;;;;;;7.37;1.77;;;13.50;65.10;;;;;;5070495;28;20680;-84
2022/09/03 11:09:57;;;;;;;7.13;2.63;;;13.60;65.20;;;;;;5059477;28;20202;-79
2022/09/03 11:12:36;;;;;;;3.47;1.57;;;13.70;65.90;;;;;;5079460;28;20235;-78
2022/09/03 11:15:22;;;;;;;8.00;1.60;;;13.60;66.90;;;;;;5057180;28;20196;-82
2022/09/03 11:18:12;;;;;;;5.93;1.80;;;13.70;67.30;;;;;;5066674;28;20189;-80
2022/09/03 11:20:41;;;;;;;5.17;1.73;;;13.80;67.10;;;;;;5070544;28;20176;-81
2022/09/03 11:23:12;;;;;;;9.43;2.03;;;13.70;68.40;;;;;;5074649;28;20229;-78
2022/09/03 11:25:51;;;;;;;6.87;1.83;;;13.70;68.60;;;;;;5070878;28;20168;-77
2022/09/03 11:28:54;;;;;;;10.87;1.83;;;13.80;67.00;;;;;;5062110;28;20212;-82
2022/09/03 11:31:31;;;;;;;7.37;1.80;;;13.80;66.40;;;;;;5053734;28;20179;-77
2022/09/03 11:34:23;;;;;;;11.00;1.83;;;13.80;66.60;;;;;;5057481;28;20209;-85
2022/09/03 11:36:52;;;;;;;10.63;2.23;;;13.70;67.10;;;;;;5063598;28;20178;-80
2022/09/03 11:39:22;;;;;;;6.87;1.60;;;13.80;67.20;;;;;;5067744;28;20175;-76
2022/09/03 11:42:07;;;;;;;9.47;1.90;;;13.80;66.90;;;;;;5054573;28;20265;-78
2022/09/03 11:44:45;;;;;;;9.67;1.83;;;13.80;67.60;;;;;;5059167;28;20179;-77
2022/09/03 11:47:20;;;;;;;9.77;1.87;;;13.80;68.00;;;;;;5066698;28;20795;-77
2022/09/03 11:49:50;;;;;;;6.50;1.90;;;13.80;67.70;;;;;;5061711;28;20177;-77
2022/09/03 11:52:28;;;;;;;12.70;2.60;;;13.80;68.10;;;;;;5073929;28;20181;-79
2022/09/03 11:54:56;;;;;;;7.83;2.00;;;13.80;68.80;;;;;;5058541;28;20207;-77
2022/09/03 11:57:32;;;;;;;8.97;1.60;;;13.70;69.00;;;;;;5054391;28;20528;-82
2022/09/03 12:00:23;;;;;;;8.27;2.47;;;13.70;69.80;;;;;;5061181;28;20613;-82
2022/09/03 12:03:03;;;;;;;12.30;1.80;;;13.60;70.00;;;;;;5067190;28;20167;-82
2022/09/03 12:05:51;;;;;;;9.77;2.00;;;13.80;68.70;;;;;;5055295;28;20179;-85
2022/09/03 12:09:05;;;;;;;9.10;2.03;;;13.90;69.10;;;;;;5066200;28;20239;-78
2022/09/03 12:11:38;;;;;;;12.37;2.30;;;14.00;68.80;;;;;;5057984;28;20186;-80
2022/09/03 12:14:10;;;;;;;9.80;2.53;;;14.20;69.70;;;;;;5072158;28;20538;-79
2022/09/03 12:16:59;;;;;;;11.07;2.47;;;14.30;71.90;;;;;;5078072;28;20179;-85
2022/09/03 12:19:49;;;;;;;13.37;2.27;;;14.10;74.50;;;;;;5067595;28;20186;-78
2022/09/03 12:22:18;;;;;;;7.03;1.60;;;14.00;75.60;;;;;;5057156;28;20176;-79
2022/09/03 12:24:46;;;;;;;10.10;2.37;;;13.90;76.00;;;;;;5054190;28;20175;-81
2022/09/03 12:27:23;;;;;;;14.10;2.60;;;13.80;76.00;;;;;;5058695;28;20293;-83
2022/09/03 12:30:02;;;;;;;9.90;2.30;;;13.80;76.20;;;;;;5063304;28;20176;-82
2022/09/03 12:32:39;;;;;;;9.27;1.90;;;13.80;74.60;;;;;;5067272;28;20224;-76
2022/09/03 12:35:22;;;;;;;6.60;1.37;;;13.80;74.00;;;;;;5060633;28;20179;-78
2022/09/03 12:37:52;;;;;;;6.40;2.00;;;13.80;73.80;;;;;;5067894;28;20221;-80
2022/09/03 12:40:22;;;;;;;6.83;2.30;;;13.80;73.00;;;;;;5065865;28;20164;-78
2022/09/03 12:42:50;;;;;;;3.43;1.43;;;13.80;73.80;;;;;;5068962;28;20194;-77
2022/09/03 12:45:23;;;;;;;6.83;1.43;;;13.80;73.50;;;;;;5067541;28;20179;-77
2022/09/03 12:47:52;;;;;;;6.37;1.80;;;13.80;72.90;;;;;;5060810;28;20215;-78
2022/09/03 12:50:22;;;;;;;15.00;2.37;;;13.70;73.30;;;;;;5062138;28;20180;-79
2022/09/03 12:53:00;;;;;;;10.03;2.13;;;13.80;72.90;;;;;;5053465;28;20184;-77
2022/09/03 12:55:28;;;;;;;6.60;1.50;;;13.80;72.80;;;;;;5065753;28;20545;-76
2022/09/03 12:58:17;;;;;;;8.63;2.17;;;13.90;70.60;;;;;;5060606;28;20649;-79
2022/09/03 13:00:58;;;;;;;6.90;1.70;;;14.00;69.50;;;;;;5057419;28;20172;-80
2022/09/03 13:03:42;;;;;;;4.67;1.60;;;14.10;68.50;;;;;;5058224;28;20640;-78
2022/09/03 13:06:15;;;;;;;5.33;1.80;;;14.20;69.00;;;;;;5070916;28;20192;-76
2022/09/03 13:09:04;;;;;;;6.30;1.70;;;14.20;69.50;;;;;;5055856;28;20681;-79
2022/09/03 13:11:38;;;;;;;8.03;1.60;;;14.10;70.50;;;;;;5051616;28;20184;-76
2022/09/03 13:14:09;;;;;;;10.67;1.83;;;14.20;71.30;;;;;;5055528;28;20534;-76
2022/09/03 13:16:46;;;;;;;6.37;1.90;;;14.10;72.00;;;;;;5053929;28;20176;-77
2022/09/03 13:19:43;;;;;;;9.90;2.03;;;14.10;72.60;;;;;;5058996;28;20633;-76
2022/09/03 13:22:16;;;;;;;16.97;2.70;;;14.10;73.50;;;;;;5056476;28;20183;-76
2022/09/03 13:24:58;;;;;;;5.23;1.70;;;14.10;74.90;;;;;;5052934;28;20180;-77